Terminal Aerodrome Forecast
Issued by NWS

Home | Current Version | Previous Version | Text Only | Print | Product List | Glossary On
Versions: 1 2 3 4 5 6 7 8 9 10 11 12 13 14 15 16 17 18 19 20 21 22 23
000
FTUS43 KMQT 261133 AAB
TAFSAW
TAF AMD
KSAW 261133Z 2612/2712 20007KT 1SM BR OVC002
     FM261300 22005KT 6SM BR OVC008
     FM261700 22007KT P6SM VCTS BKN060CB
     FM261900 20006KT P6SM -TSRA OVC040CB
     FM262300 00000KT P6SM VCSH SCT050
     FM270300 19004KT P6SM SCT050
     FM270900 20003KT 1SM BR BKN030=

USA.gov is the U.S. government's official web portal to all federal, state and local government web resources and services.